createdAt,value
2023-05-05T00:00:06.276Z,66.50
2023-05-05T00:05:29.753Z,66.79
2023-05-05T00:10:58.757Z,67.04
2023-05-05T00:16:02.309Z,67.32
2023-05-05T00:21:06.036Z,67.80
2023-05-05T00:26:09.652Z,68.10
2023-05-05T00:32:35.463Z,68.26
2023-05-05T00:37:39.224Z,68.28
2023-05-05T00:42:46.216Z,68.53
2023-05-05T00:47:56.855Z,68.61
2023-05-05T01:00:20.327Z,69.19
2023-05-05T01:05:26.105Z,69.35
2023-05-05T01:11:21.313Z,69.42
2023-05-05T01:16:31.258Z,69.77
2023-05-05T01:21:47.414Z,69.72
2023-05-05T01:27:32.332Z,69.92
2023-05-05T01:39:43.860Z,70.08
2023-05-05T01:44:49.654Z,70.14
2023-05-05T01:49:53.787Z,70.17
2023-05-05T01:54:59.640Z,70.33
2023-05-05T02:00:05.008Z,70.15
2023-05-05T02:05:10.264Z,70.45
2023-05-05T02:11:05.301Z,70.77
2023-05-05T02:16:10.693Z,71.14
2023-05-05T02:21:18.280Z,71.05
2023-05-05T02:26:24.577Z,71.17
2023-05-05T02:31:38.663Z,71.03
2023-05-05T02:36:45.425Z,71.11
2023-05-05T02:41:52.467Z,71.33
2023-05-05T02:46:58.027Z,71.28
2023-05-05T02:52:01.749Z,71.10
2023-05-05T02:57:05.287Z,71.17
2023-05-05T03:16:09.542Z,71.75
2023-05-05T03:21:14.578Z,71.96
2023-05-05T03:26:44.664Z,71.91
2023-05-05T03:31:49.056Z,72.25
2023-05-05T03:36:55.701Z,72.49
2023-05-05T03:42:51.249Z,72.53
2023-05-05T03:47:54.994Z,72.54
2023-05-05T03:52:58.507Z,72.24
2023-05-05T03:58:02.855Z,72.32
2023-05-05T04:03:07.114Z,72.39
2023-05-05T04:08:11.150Z,72.21
2023-05-05T04:13:15.158Z,72.25
2023-05-05T04:18:19.141Z,72.26
2023-05-05T04:31:52.584Z,72.38
2023-05-05T04:36:56.141Z,72.38
2023-05-05T04:42:50.047Z,72.58
2023-05-05T04:47:54.130Z,72.79
2023-05-05T05:00:04.923Z,72.74
2023-05-05T05:05:13.300Z,72.53
2023-05-05T05:11:51.289Z,72.17
2023-05-05T05:16:55.409Z,71.45
2023-05-05T05:21:58.854Z,70.82
2023-05-05T05:27:09.976Z,70.37
2023-05-05T05:32:15.834Z,69.92
2023-05-05T05:37:19.470Z,69.18
2023-05-05T05:42:23.270Z,68.43
2023-05-05T05:47:27.138Z,67.73
2023-05-05T05:52:31.259Z,66.99
2023-05-05T05:57:35.766Z,65.93
2023-05-05T06:02:39.682Z,64.58
2023-05-05T06:08:34.275Z,63.96
2023-05-05T06:13:37.920Z,63.55
2023-05-05T06:18:44.166Z,62.85
2023-05-05T06:23:47.940Z,61.60
2023-05-05T06:28:51.490Z,60.36
2023-05-05T06:33:55.450Z,59.00
2023-05-05T06:38:59.802Z,58.03
2023-05-05T06:44:05.596Z,56.76
2023-05-05T06:49:10.182Z,55.40
2023-05-05T06:54:14.716Z,54.27
2023-05-05T06:59:18.741Z,54.15
2023-05-05T07:04:23.364Z,53.62
2023-05-05T07:09:27.447Z,53.04
2023-05-05T07:14:31.031Z,52.37
2023-05-05T07:19:36.754Z,50.92
2023-05-05T07:24:41.325Z,50.90
2023-05-05T07:29:48.223Z,50.37
2023-05-05T07:34:52.579Z,50.20
2023-05-05T07:39:58.190Z,50.20
2023-05-05T07:45:04.925Z,49.17
2023-05-05T07:50:10.623Z,48.75
2023-05-05T07:55:14.531Z,48.54
2023-05-05T08:00:19.753Z,47.43
2023-05-05T08:05:23.528Z,47.06
2023-05-05T08:10:28.093Z,46.88
2023-05-05T08:15:31.670Z,46.56
2023-05-05T08:20:35.467Z,46.06
2023-05-05T08:25:39.020Z,46.19
2023-05-05T08:30:43.166Z,45.88
2023-05-05T08:35:48.411Z,45.45
2023-05-05T08:40:53.000Z,45.24
2023-05-05T08:45:59.248Z,44.73
2023-05-05T08:51:08.278Z,44.51
2023-05-05T08:56:13.695Z,44.13
2023-05-05T09:01:18.571Z,43.64
2023-05-05T09:06:23.724Z,42.13
2023-05-05T09:11:28.408Z,42.28
2023-05-05T09:16:32.231Z,41.13
2023-05-05T09:21:46.660Z,41.43
2023-05-05T09:26:50.643Z,41.04
2023-05-05T09:32:05.842Z,40.48
2023-05-05T09:37:10.911Z,39.97
2023-05-05T09:42:21.252Z,39.94
2023-05-05T09:47:37.884Z,39.62
2023-05-05T09:53:03.944Z,38.65
2023-05-05T09:58:28.594Z,38.43
2023-05-05T10:03:32.480Z,38.65
2023-05-05T10:08:36.109Z,38.43
2023-05-05T10:13:43.959Z,38.35
2023-05-05T10:18:48.885Z,39.71
2023-05-05T10:24:11.964Z,39.80
2023-05-05T10:29:31.783Z,39.29
2023-05-05T10:34:59.657Z,37.60
2023-05-05T10:40:04.604Z,37.47
2023-05-05T10:45:11.094Z,37.37
2023-05-05T10:50:45.049Z,36.85
2023-05-05T10:56:13.829Z,37.51
2023-05-05T11:01:34.036Z,37.58
2023-05-05T11:06:37.663Z,37.58
2023-05-05T11:12:06.896Z,37.03
2023-05-05T11:17:49.223Z,36.11
2023-05-05T11:23:15.228Z,35.47
2023-05-05T11:28:31.662Z,35.56
2023-05-05T11:33:39.691Z,35.78
2023-05-05T11:39:10.463Z,33.93
2023-05-05T11:44:30.984Z,35.44
2023-05-05T11:49:40.584Z,34.99
2023-05-05T11:54:48.913Z,33.61
2023-05-05T12:00:41.029Z,33.10
2023-05-05T12:05:50.472Z,32.91
2023-05-05T12:11:27.018Z,33.49
2023-05-05T12:16:31.814Z,32.56
2023-05-05T12:21:36.253Z,32.86
2023-05-05T12:45:21.421Z,31.64
2023-05-05T12:50:50.475Z,31.75
2023-05-05T12:56:44.654Z,32.08
2023-05-05T13:02:39.520Z,31.41
2023-05-05T13:21:59.882Z,31.61
2023-05-05T13:27:05.068Z,31.42
2023-05-05T13:39:36.409Z,32.00
2023-05-05T13:46:16.129Z,31.55
2023-05-05T13:51:22.875Z,31.69
2023-05-05T13:57:05.366Z,31.65
2023-05-05T14:03:25.299Z,31.70
2023-05-05T14:08:54.808Z,32.03
2023-05-05T14:14:35.702Z,31.16
2023-05-05T14:20:29.657Z,30.28
2023-05-05T14:25:45.606Z,31.08
2023-05-05T14:30:52.709Z,30.65
2023-05-05T14:37:24.794Z,30.67
2023-05-05T14:42:29.253Z,31.08
2023-05-05T14:47:34.962Z,31.69
2023-05-05T14:52:40.538Z,31.23
2023-05-05T14:57:47.490Z,30.59
2023-05-05T15:02:51.232Z,31.13
2023-05-05T15:07:55.146Z,30.40
2023-05-05T15:12:59.236Z,29.66
2023-05-05T15:18:03.164Z,29.63
2023-05-05T15:37:29.437Z,28.50
2023-05-05T15:42:34.207Z,27.71
2023-05-05T15:48:02.758Z,26.91
2023-05-05T15:53:28.449Z,26.42
2023-05-05T16:07:23.128Z,27.91
2023-05-05T16:12:26.965Z,27.81
2023-05-05T16:17:48.366Z,28.05
2023-05-05T16:23:24.482Z,28.58
2023-05-05T16:28:53.148Z,28.90
2023-05-05T16:49:15.259Z,29.75
2023-05-05T16:55:41.547Z,30.20
2023-05-05T17:00:58.447Z,31.35
2023-05-05T17:13:24.675Z,32.88
2023-05-05T17:18:54.085Z,33.49
2023-05-05T17:23:59.474Z,34.28
2023-05-05T17:29:03.174Z,34.87
2023-05-05T17:34:07.189Z,35.36
2023-05-05T17:39:14.176Z,35.88
2023-05-05T17:44:18.867Z,36.21
2023-05-05T17:49:25.499Z,36.52
2023-05-05T17:54:30.587Z,37.42
2023-05-05T17:59:36.078Z,37.99
2023-05-05T18:04:39.681Z,38.09
2023-05-05T18:09:43.411Z,38.10
2023-05-05T18:22:58.041Z,39.15
2023-05-05T18:28:07.811Z,39.62
2023-05-05T18:57:54.749Z,42.51
2023-05-05T19:03:23.959Z,43.78
2023-05-05T19:08:27.919Z,44.58
2023-05-05T19:14:23.321Z,45.12
2023-05-05T19:19:27.655Z,45.58
2023-05-05T19:25:21.843Z,45.97
2023-05-05T19:30:29.078Z,46.94
2023-05-05T19:35:58.198Z,47.47
2023-05-05T19:41:08.203Z,47.87
2023-05-05T19:46:37.299Z,48.34
2023-05-05T19:51:42.288Z,48.76
2023-05-05T19:57:11.031Z,49.24
2023-05-05T20:02:17.656Z,49.72
2023-05-05T20:07:21.649Z,50.35
2023-05-05T20:12:25.723Z,50.88
2023-05-05T20:17:29.632Z,51.35
2023-05-05T20:22:33.536Z,51.74
2023-05-05T20:27:39.610Z,52.15
2023-05-05T20:32:43.673Z,52.52
2023-05-05T20:37:47.476Z,52.83
2023-05-05T20:42:52.779Z,53.15
2023-05-05T20:47:58.794Z,53.60
2023-05-05T20:53:03.577Z,54.06
2023-05-05T20:58:07.821Z,54.53
2023-05-05T21:03:12.260Z,55.17
2023-05-05T21:08:16.927Z,55.37
2023-05-05T21:13:20.779Z,55.99
2023-05-05T21:18:28.643Z,56.61
2023-05-05T21:23:32.413Z,57.42
2023-05-05T21:28:36.512Z,57.64
2023-05-05T21:33:40.725Z,57.96
2023-05-05T21:38:46.705Z,58.00
2023-05-05T21:43:50.627Z,58.47
2023-05-05T21:48:54.658Z,58.83
2023-05-05T21:53:59.616Z,59.17
2023-05-05T21:59:05.591Z,59.19
2023-05-05T22:04:09.887Z,59.51
2023-05-05T22:09:14.767Z,59.79
2023-05-05T22:14:19.738Z,59.99
2023-05-05T22:19:23.762Z,60.22
2023-05-05T22:24:27.685Z,60.63
2023-05-05T22:29:32.691Z,60.73
2023-05-05T22:34:37.716Z,61.24
2023-05-05T22:39:42.846Z,61.22
2023-05-05T22:44:46.789Z,61.40
2023-05-05T22:49:51.770Z,61.53
2023-05-05T22:54:56.504Z,62.06
2023-05-05T23:00:00.636Z,62.38
2023-05-05T23:05:05.654Z,62.31
2023-05-05T23:10:10.029Z,62.16
2023-05-05T23:15:14.764Z,61.94
2023-05-05T23:20:18.801Z,62.10
2023-05-05T23:25:22.661Z,62.15
2023-05-05T23:30:26.661Z,62.05
2023-05-05T23:35:30.780Z,62.16
2023-05-05T23:40:35.913Z,62.30
2023-05-05T23:45:39.471Z,62.54
2023-05-05T23:50:43.695Z,62.53
2023-05-05T23:55:48.864Z,62.46
